createdAt,value
2023-05-17T00:02:02.584Z,102060.41
2023-05-17T00:07:04.293Z,102062.03
2023-05-17T00:12:05.930Z,102055.41
2023-05-17T00:17:07.386Z,102056.81
2023-05-17T00:22:08.929Z,102052.25
2023-05-17T00:27:10.351Z,102027.94
2023-05-17T00:32:11.936Z,102026.53
2023-05-17T00:37:13.453Z,102014.03
2023-05-17T00:42:15.092Z,101983.28
2023-05-17T00:47:16.600Z,101907.63
2023-05-17T00:52:18.241Z,101845.81
2023-05-17T00:57:20.076Z,101826.59
2023-05-17T01:02:21.942Z,101839.28
2023-05-17T01:07:23.663Z,101833.03
2023-05-17T01:12:38.956Z,101837.09
2023-05-17T01:18:06.901Z,101852.44
2023-05-17T01:23:54.912Z,101860.03
2023-05-17T01:28:57.558Z,101863.31
2023-05-17T01:33:59.352Z,101864.91
2023-05-17T01:39:01.629Z,101874.66
2023-05-17T01:44:12.351Z,101874.19
2023-05-17T01:49:35.226Z,101876.75
2023-05-17T01:54:47.753Z,101872.81
2023-05-17T01:59:49.989Z,101871.63
2023-05-17T02:04:51.919Z,101871.75
2023-05-17T02:09:53.472Z,101872.31
2023-05-17T02:14:54.933Z,101881.94
2023-05-17T02:19:56.442Z,101892.72
2023-05-17T02:24:57.877Z,101893.06
2023-05-17T02:29:59.455Z,101895.38
2023-05-17T02:35:01.329Z,101888.06
2023-05-17T02:40:04.129Z,101896.91
2023-05-17T02:45:06.129Z,101898.16
2023-05-17T02:50:07.845Z,101909.72
2023-05-17T02:55:09.679Z,101912.22
2023-05-17T03:00:11.606Z,101911.34
2023-05-17T03:05:13.257Z,101910.75
2023-05-17T03:10:14.710Z,101911.25
2023-05-17T03:15:16.263Z,101925.78
2023-05-17T03:20:18.339Z,101937.78
2023-05-17T03:25:19.809Z,101950.16
2023-05-17T03:30:21.572Z,101961.31
2023-05-17T03:35:23.182Z,101961.13
2023-05-17T03:40:24.620Z,101971.41
2023-05-17T03:45:27.873Z,101973.06
2023-05-17T03:50:31.976Z,101965.22
2023-05-17T03:55:33.588Z,101978.59
2023-05-17T04:00:35.034Z,101981.38
2023-05-17T04:05:36.541Z,101985.00
2023-05-17T04:10:41.890Z,101988.25
2023-05-17T04:15:43.635Z,102001.13
2023-05-17T04:20:45.362Z,101996.66
2023-05-17T04:25:47.282Z,102001.53
2023-05-17T04:30:48.747Z,102008.81
2023-05-17T04:35:52.446Z,102025.78
2023-05-17T04:40:54.174Z,102034.38
2023-05-17T04:45:59.905Z,102038.56
2023-05-17T04:51:04.184Z,102045.41
2023-05-17T04:56:06.962Z,102047.31
2023-05-17T05:01:08.497Z,102052.00
2023-05-17T05:06:10.068Z,102058.56
2023-05-17T05:11:11.614Z,102062.59
2023-05-17T05:16:13.138Z,102073.84
2023-05-17T05:21:14.579Z,102082.81
2023-05-17T05:26:16.073Z,102082.88
2023-05-17T05:31:17.663Z,102089.56
2023-05-17T05:36:19.247Z,102097.19
2023-05-17T05:41:21.209Z,102104.69
2023-05-17T05:46:22.788Z,102107.25
2023-05-17T05:51:24.402Z,102127.16
2023-05-17T05:56:30.727Z,102133.47
2023-05-17T06:01:32.225Z,102145.88
2023-05-17T06:06:33.822Z,102156.94
2023-05-17T06:11:35.437Z,102169.72
2023-05-17T06:16:37.079Z,102180.09
2023-05-17T06:21:38.655Z,102193.34
2023-05-17T06:26:41.047Z,102203.97
2023-05-17T06:31:42.818Z,102225.28
2023-05-17T06:36:44.304Z,102234.03
2023-05-17T06:41:46.001Z,102244.03
2023-05-17T06:46:47.571Z,102249.13
2023-05-17T06:51:49.138Z,102252.94
2023-05-17T06:56:50.688Z,102247.63
2023-05-17T07:01:52.330Z,102248.63
2023-05-17T07:06:54.055Z,102239.97
2023-05-17T07:11:55.565Z,102236.66
2023-05-17T07:16:57.035Z,102231.22
2023-05-17T07:21:58.679Z,102240.44
2023-05-17T07:27:00.463Z,102225.59
2023-05-17T07:32:02.118Z,102250.13
2023-05-17T07:37:03.724Z,102248.25
2023-05-17T07:42:05.860Z,102251.47
2023-05-17T07:47:07.764Z,102256.66
2023-05-17T07:52:09.350Z,102265.78
2023-05-17T07:57:11.155Z,102276.75
2023-05-17T08:02:12.645Z,102274.88
2023-05-17T08:07:14.374Z,102281.19
2023-05-17T08:12:15.887Z,102286.84
2023-05-17T08:17:17.338Z,102284.75
2023-05-17T08:22:19.310Z,102309.00
2023-05-17T08:27:20.806Z,102309.38
2023-05-17T08:32:23.574Z,102317.78
2023-05-17T08:37:25.287Z,102316.16
2023-05-17T08:42:29.888Z,102291.75
2023-05-17T08:47:34.277Z,102320.13
2023-05-17T08:52:37.482Z,102322.25
2023-05-17T08:57:40.424Z,102316.19
2023-05-17T09:02:43.008Z,102327.63
2023-05-17T09:07:44.917Z,102331.94
2023-05-17T09:12:46.693Z,102336.19
2023-05-17T09:17:55.003Z,102416.38
2023-05-17T09:22:57.624Z,102446.13
2023-05-17T09:28:10.412Z,102481.56
2023-05-17T09:33:13.964Z,102480.16
2023-05-17T09:38:18.207Z,102550.28
2023-05-17T09:43:25.469Z,102579.16
2023-05-17T09:48:28.142Z,102572.25
2023-05-17T09:53:38.390Z,102575.53
2023-05-17T09:58:39.900Z,102588.31
2023-05-17T10:03:41.707Z,102589.59
2023-05-17T10:08:44.812Z,102578.78
2023-05-17T10:14:06.041Z,102571.03
2023-05-17T10:19:09.046Z,102581.66
2023-05-17T10:24:12.128Z,102586.56
2023-05-17T10:29:15.301Z,102583.94
2023-05-17T10:34:19.040Z,102573.25
2023-05-17T10:39:22.147Z,102578.84
2023-05-17T10:44:24.646Z,102583.94
2023-05-17T10:49:38.200Z,102576.59
2023-05-17T10:54:43.071Z,102574.09
2023-05-17T10:59:58.760Z,102564.50
2023-05-17T11:05:02.207Z,102559.63
2023-05-17T11:10:10.238Z,102552.16
2023-05-17T11:15:13.457Z,102558.66
2023-05-17T11:20:16.654Z,102550.28
2023-05-17T11:25:19.304Z,102554.41
2023-05-17T11:30:31.791Z,102539.31
2023-05-17T11:35:38.644Z,102542.59
2023-05-17T11:40:40.514Z,102543.72
2023-05-17T11:45:46.146Z,102562.84
2023-05-17T11:50:49.589Z,102551.63
2023-05-17T11:55:52.394Z,102546.97
2023-05-17T12:00:56.303Z,102552.47
2023-05-17T12:06:15.373Z,102543.97
2023-05-17T12:11:18.708Z,102553.00
2023-05-17T12:16:22.341Z,102540.53
2023-05-17T12:21:23.900Z,102543.34
2023-05-17T12:26:26.193Z,102540.63
2023-05-17T12:31:38.312Z,102535.97
2023-05-17T12:36:40.665Z,102529.38
2023-05-17T12:41:43.225Z,102546.16
2023-05-17T12:46:45.335Z,102540.09
2023-05-17T12:51:47.606Z,102537.44
2023-05-17T12:56:49.054Z,102535.09
2023-05-17T13:01:58.148Z,102548.69
2023-05-17T13:07:01.442Z,102538.22
2023-05-17T13:12:07.662Z,102527.84
2023-05-17T13:17:16.896Z,102523.72
2023-05-17T13:22:18.418Z,102533.63
2023-05-17T13:27:20.339Z,102522.19
2023-05-17T13:32:21.831Z,102523.06
2023-05-17T13:37:23.332Z,102536.34
2023-05-17T13:42:24.903Z,102516.97
2023-05-17T13:47:29.884Z,102522.31
2023-05-17T13:52:31.505Z,102505.97
2023-05-17T13:57:33.376Z,102511.56
2023-05-17T14:02:36.766Z,102524.72
2023-05-17T14:07:42.799Z,102529.94
2023-05-17T14:12:44.230Z,102516.16
2023-05-17T14:17:45.837Z,102515.75
2023-05-17T14:22:47.484Z,102516.34
2023-05-17T14:27:49.088Z,102517.56
2023-05-17T14:32:50.817Z,102515.53
2023-05-17T14:37:52.425Z,102516.63
2023-05-17T14:42:56.005Z,102533.09
2023-05-17T14:47:57.573Z,102531.69
2023-05-17T14:52:59.074Z,102530.59
2023-05-17T14:58:01.894Z,102537.69
2023-05-17T15:03:03.568Z,102547.47
2023-05-17T15:08:05.312Z,102548.94
2023-05-17T15:13:06.988Z,102551.00
2023-05-17T15:18:08.540Z,102542.22
2023-05-17T15:23:10.102Z,102550.78
2023-05-17T15:28:11.600Z,102535.66
2023-05-17T15:33:13.367Z,102532.38
2023-05-17T15:38:14.964Z,102535.28
2023-05-17T15:43:16.454Z,102541.34
2023-05-17T15:48:18.895Z,102541.31
2023-05-17T15:53:20.942Z,102536.31
2023-05-17T15:58:24.950Z,102537.31
2023-05-17T16:03:26.420Z,102524.78
2023-05-17T16:08:27.885Z,102525.59
2023-05-17T16:13:29.631Z,102530.19
2023-05-17T16:18:31.780Z,102515.91
2023-05-17T16:23:33.539Z,102519.19
2023-05-17T16:28:36.886Z,102520.31
2023-05-17T16:33:38.595Z,102514.56
2023-05-17T16:38:40.122Z,102523.97
2023-05-17T16:43:41.707Z,102529.78
2023-05-17T16:48:43.175Z,102521.47
2023-05-17T16:53:44.600Z,102522.53
2023-05-17T16:58:46.616Z,102525.78
2023-05-17T17:03:48.417Z,102537.13
2023-05-17T17:08:49.968Z,102530.50
2023-05-17T17:13:51.722Z,102550.91
2023-05-17T17:18:53.298Z,102557.50
2023-05-17T17:23:54.821Z,102563.16
2023-05-17T17:28:56.370Z,102572.16
2023-05-17T17:33:57.995Z,102565.91
2023-05-17T17:38:59.836Z,102570.59
2023-05-17T17:44:01.348Z,102564.66
2023-05-17T17:49:05.319Z,102568.28
2023-05-17T17:54:07.522Z,102562.47
2023-05-17T17:59:08.994Z,102561.47
2023-05-17T18:04:11.407Z,102563.13
2023-05-17T18:09:12.946Z,102570.69
2023-05-17T18:14:15.604Z,102570.06
2023-05-17T18:19:17.392Z,102569.81
2023-05-17T18:24:19.004Z,102578.06
2023-05-17T18:29:20.654Z,102580.56
2023-05-17T18:34:22.383Z,102575.06
2023-05-17T18:39:24.372Z,102578.25
2023-05-17T18:44:25.900Z,102579.41
2023-05-17T18:49:27.581Z,102592.97
2023-05-17T18:54:29.224Z,102589.94
2023-05-17T18:59:31.065Z,102596.13
2023-05-17T19:04:33.962Z,102595.66
2023-05-17T19:09:35.730Z,102602.44
2023-05-17T19:14:38.477Z,102602.72
2023-05-17T19:19:40.041Z,102614.84
2023-05-17T19:24:43.840Z,102622.16
2023-05-17T19:29:48.924Z,102624.25
2023-05-17T19:34:51.189Z,102629.16
2023-05-17T19:39:52.747Z,102619.53
2023-05-17T19:44:54.250Z,102618.38
2023-05-17T19:49:56.289Z,102624.69
2023-05-17T19:54:58.424Z,102610.56
2023-05-17T20:00:00.109Z,102597.50
2023-05-17T20:05:04.132Z,102591.84
2023-05-17T20:10:06.601Z,102575.03
2023-05-17T20:15:08.894Z,102560.03
2023-05-17T20:20:10.873Z,102541.31
2023-05-17T20:25:12.721Z,102539.22
2023-05-17T20:30:14.309Z,102524.66
2023-05-17T20:35:15.938Z,102516.78
2023-05-17T20:40:17.532Z,102494.53
2023-05-17T20:45:19.570Z,102492.88
2023-05-17T20:50:21.674Z,102475.47
2023-05-17T20:55:23.568Z,102474.09
2023-05-17T21:00:25.595Z,102465.13
2023-05-17T21:05:28.478Z,102463.59
2023-05-17T21:10:30.543Z,102463.03
2023-05-17T21:15:33.529Z,102456.50
2023-05-17T21:20:35.539Z,102462.69
2023-05-17T21:25:37.869Z,102461.22
2023-05-17T21:30:39.570Z,102463.00
2023-05-17T21:35:41.119Z,102444.00
2023-05-17T21:40:45.776Z,102442.69
2023-05-17T21:45:47.348Z,102443.25
2023-05-17T21:50:49.836Z,102436.69
2023-05-17T22:00:58.715Z,102427.84
2023-05-17T22:06:01.471Z,102426.19
2023-05-17T22:11:03.710Z,102419.91
2023-05-17T22:16:06.249Z,102432.06
2023-05-17T22:21:11.272Z,102416.88
2023-05-17T22:26:15.287Z,102426.53
2023-05-17T22:31:21.641Z,102423.38
2023-05-17T22:36:24.903Z,102428.66
2023-05-17T22:41:32.293Z,102429.88
2023-05-17T22:46:33.819Z,102421.81
2023-05-17T22:51:35.631Z,102431.16
2023-05-17T22:56:37.186Z,102433.53
2023-05-17T23:01:38.714Z,102434.56
2023-05-17T23:06:40.289Z,102429.88
2023-05-17T23:11:41.740Z,102451.28
2023-05-17T23:16:43.445Z,102446.56
2023-05-17T23:21:46.419Z,102446.09
2023-05-17T23:26:48.721Z,102447.63
2023-05-17T23:31:50.732Z,102444.97
2023-05-17T23:36:52.506Z,102443.88
2023-05-17T23:41:54.088Z,102449.94
2023-05-17T23:46:56.293Z,102450.63
2023-05-17T23:51:57.994Z,102449.94
2023-05-17T23:56:59.427Z,102439.19
